Time;durP1;ratioP1;P1;durP2;ratioP2;P2;SDS_P1;SDS_P2;PMS_P1;PMS_P2;Temp;Humidity;BMP_temperature;BMP_pressure;BME280_temperature;BME280_humidity;BME280_pressure;Samples;Min_cycle;Max_cycle;Signal;HPM_P1;HPM_P2
2022/04/23 00:00:25;;;;;;;6.65;6.05;;;12.10;99.90;;;;;;5037473;28;20068;-60
2022/04/23 00:02:51;;;;;;;7.43;6.72;;;12.10;99.90;;;;;;5036051;28;20056;-61
2022/04/23 00:05:17;;;;;;;6.25;5.65;;;12.10;99.90;;;;;;5035505;28;20409;-60
2022/04/23 00:07:42;;;;;;;7.00;6.13;;;12.20;99.90;;;;;;5035708;28;20028;-60
2022/04/23 00:10:09;;;;;;;7.10;6.40;;;12.10;99.90;;;;;;5032708;28;20041;-60
2022/04/23 00:12:35;;;;;;;6.65;6.05;;;12.10;99.90;;;;;;5034871;28;20037;-60
2022/04/23 00:15:01;;;;;;;7.88;6.50;;;12.10;99.90;;;;;;5036583;28;20032;-60
2022/04/23 00:17:26;;;;;;;7.47;6.75;;;12.10;99.90;;;;;;5035532;28;20037;-60
2022/04/23 00:19:53;;;;;;;8.15;7.35;;;12.10;99.90;;;;;;5033863;28;20033;-60
2022/04/23 00:22:19;;;;;;;8.23;7.43;;;12.10;99.90;;;;;;5032511;28;20053;-60
2022/04/23 00:24:46;;;;;;;8.30;7.60;;;12.10;99.90;;;;;;5032680;28;20072;-60
2022/04/23 00:27:11;;;;;;;8.00;7.18;;;12.10;99.90;;;;;;5036916;28;20030;-60
2022/04/23 00:29:39;;;;;;;9.50;7.35;;;12.10;99.90;;;;;;5035448;28;20140;-60
2022/04/23 00:32:06;;;;;;;8.60;7.78;;;12.10;99.90;;;;;;5034942;28;20525;-60
2022/04/23 00:34:32;;;;;;;8.68;7.40;;;12.10;99.90;;;;;;5035032;28;20029;-60
2022/04/23 00:36:57;;;;;;;8.27;7.45;;;12.10;99.90;;;;;;5029578;28;20099;-59
2022/04/23 00:39:23;;;;;;;8.30;7.50;;;12.10;99.90;;;;;;5036890;28;20093;-60
2022/04/23 00:41:51;;;;;;;8.68;7.72;;;12.20;99.90;;;;;;5034637;28;20111;-60
2022/04/23 00:44:17;;;;;;;8.68;7.88;;;12.20;99.90;;;;;;5035320;28;20029;-60
2022/04/23 00:46:44;;;;;;;7.97;7.30;;;12.20;99.90;;;;;;5034388;28;20037;-61
2022/04/23 00:49:10;;;;;;;8.75;7.85;;;12.20;99.90;;;;;;5032593;28;20025;-60
2022/04/23 00:51:38;;;;;;;7.97;7.18;;;12.20;99.90;;;;;;5034144;28;20030;-59
2022/04/23 00:54:07;;;;;;;8.05;7.25;;;12.40;99.90;;;;;;5068280;28;20025;-60
2022/04/23 00:56:37;;;;;;;8.10;7.30;;;12.40;99.90;;;;;;5033478;28;20025;-60
2022/04/23 00:59:05;;;;;;;8.50;7.70;;;12.40;99.90;;;;;;5033734;28;20029;-61
2022/04/23 01:01:30;;;;;;;9.27;8.13;;;12.30;99.90;;;;;;5033435;28;20048;-60
2022/04/23 01:03:57;;;;;;;9.52;8.00;;;12.30;99.90;;;;;;5030352;28;20029;-60
2022/04/23 01:06:24;;;;;;;9.45;8.20;;;12.20;99.90;;;;;;5047859;28;20029;-61
2022/04/23 01:08:50;;;;;;;9.60;8.60;;;12.20;99.90;;;;;;5034756;28;20030;-60
2022/04/23 01:11:17;;;;;;;10.55;9.15;;;12.10;99.90;;;;;;5033872;28;20025;-61
2022/04/23 01:13:44;;;;;;;10.25;8.55;;;12.10;99.90;;;;;;5034600;28;20029;-60
2022/04/23 01:16:10;;;;;;;10.65;9.38;;;12.10;99.90;;;;;;5031761;28;20032;-60
2022/04/23 01:18:42;;;;;;;10.15;9.15;;;12.10;99.90;;;;;;5033632;28;20033;-60
2022/04/23 01:21:13;;;;;;;10.95;9.82;;;12.10;99.90;;;;;;5034521;28;20056;-60
2022/04/23 01:23:41;;;;;;;11.75;10.60;;;12.00;99.90;;;;;;5034487;28;20378;-60
2022/04/23 01:26:08;;;;;;;11.88;10.60;;;12.00;99.90;;;;;;5034474;28;20108;-60
2022/04/23 01:28:35;;;;;;;12.07;10.88;;;12.00;99.90;;;;;;5034363;28;20025;-60
2022/04/23 01:31:04;;;;;;;10.63;9.55;;;12.00;99.90;;;;;;5030207;28;20030;-60
2022/04/23 01:33:30;;;;;;;11.98;10.75;;;12.00;99.90;;;;;;5034952;28;20034;-60
2022/04/23 01:35:56;;;;;;;11.70;10.52;;;12.00;99.90;;;;;;5033249;28;20053;-60
2022/04/23 01:38:21;;;;;;;11.93;9.93;;;12.10;99.90;;;;;;5032400;28;20478;-61
2022/04/23 01:40:47;;;;;;;11.80;10.45;;;12.20;99.90;;;;;;5032649;28;20033;-60
2022/04/23 01:43:13;;;;;;;11.75;9.70;;;12.30;99.90;;;;;;5031995;28;20053;-60
2022/04/23 01:45:39;;;;;;;12.35;9.93;;;12.20;99.90;;;;;;5032677;28;20052;-60
2022/04/23 01:48:05;;;;;;;10.68;9.60;;;12.20;99.90;;;;;;5035483;28;20373;-60
2022/04/23 01:50:31;;;;;;;9.82;8.93;;;12.20;99.90;;;;;;5033832;28;20053;-61
2022/04/23 01:52:57;;;;;;;10.63;9.38;;;12.20;99.90;;;;;;5033752;28;20034;-60
2022/04/23 01:55:23;;;;;;;10.35;9.35;;;12.20;99.90;;;;;;5031685;28;20129;-60
2022/04/23 01:57:49;;;;;;;10.35;9.35;;;12.20;99.90;;;;;;5030467;28;20109;-61
2022/04/23 02:00:15;;;;;;;10.75;9.73;;;12.20;99.90;;;;;;5035851;28;20471;-60
2022/04/23 02:02:44;;;;;;;11.50;10.30;;;12.20;99.90;;;;;;5033856;28;20029;-60
2022/04/23 02:05:10;;;;;;;13.98;11.10;;;12.10;99.90;;;;;;5034100;28;20021;-60
2022/04/23 02:07:44;;;;;;;11.15;10.15;;;12.10;99.90;;;;;;5034653;28;20500;-60
2022/04/23 02:10:12;;;;;;;11.82;10.35;;;12.00;99.90;;;;;;5035207;28;20025;-60
2022/04/23 02:12:39;;;;;;;11.88;10.77;;;12.00;99.90;;;;;;5036603;28;20041;-60
2022/04/23 02:15:09;;;;;;;12.48;10.57;;;12.00;99.90;;;;;;5039403;28;20021;-60
2022/04/23 02:17:39;;;;;;;11.43;10.20;;;12.00;99.90;;;;;;5036773;28;20116;-59
2022/04/23 02:20:10;;;;;;;12.00;10.80;;;12.00;99.90;;;;;;5036153;28;20030;-60
2022/04/23 02:22:36;;;;;;;12.95;11.27;;;11.90;99.90;;;;;;5037182;28;20087;-59
2022/04/23 02:25:02;;;;;;;12.23;10.98;;;11.90;99.90;;;;;;5033905;28;20052;-60
2022/04/23 02:27:38;;;;;;;12.55;11.25;;;11.90;99.90;;;;;;5038788;28;20406;-60
2022/04/23 02:30:04;;;;;;;13.35;12.07;;;11.90;99.90;;;;;;5038845;28;20030;-61
2022/04/23 02:32:30;;;;;;;12.35;11.07;;;11.80;99.90;;;;;;5037635;28;20115;-60
2022/04/23 02:34:56;;;;;;;12.38;11.20;;;11.80;99.90;;;;;;5035953;28;20081;-60
2022/04/23 02:37:22;;;;;;;13.30;11.50;;;11.80;99.90;;;;;;5035878;28;20021;-60
2022/04/23 02:39:48;;;;;;;13.30;11.60;;;11.80;99.90;;;;;;5034398;28;20041;-60
2022/04/23 02:42:14;;;;;;;12.82;11.65;;;11.80;99.90;;;;;;5039181;28;20026;-60
2022/04/23 02:44:39;;;;;;;12.35;11.25;;;11.80;99.90;;;;;;5037184;28;20063;-60
2022/04/23 02:47:06;;;;;;;15.50;11.77;;;11.80;99.90;;;;;;5036494;28;20107;-60
2022/04/23 02:49:32;;;;;;;13.43;12.23;;;11.80;99.90;;;;;;5036040;28;20067;-60
2022/04/23 02:51:57;;;;;;;15.68;12.32;;;11.80;99.90;;;;;;5032479;28;20069;-60
2022/04/23 02:54:23;;;;;;;12.10;11.00;;;11.80;99.90;;;;;;5038975;28;20339;-60
2022/04/23 02:56:50;;;;;;;11.25;10.15;;;11.90;99.90;;;;;;5034397;28;20121;-61
2022/04/23 02:59:15;;;;;;;11.18;10.15;;;12.00;99.90;;;;;;5035785;28;20208;-60
2022/04/23 03:01:41;;;;;;;11.32;10.32;;;12.00;99.90;;;;;;5036958;28;20071;-59
2022/04/23 03:04:10;;;;;;;10.80;9.82;;;12.00;99.90;;;;;;5033730;28;20025;-60
2022/04/23 03:06:35;;;;;;;11.48;10.32;;;12.00;99.90;;;;;;5036437;28;20040;-60
2022/04/23 03:09:03;;;;;;;9.85;8.98;;;12.00;99.90;;;;;;5037880;28;20025;-60
2022/04/23 03:11:32;;;;;;;11.40;10.30;;;11.90;99.90;;;;;;5036606;28;20029;-60
2022/04/23 03:13:58;;;;;;;10.20;9.27;;;11.90;99.90;;;;;;5036702;28;20036;-60
2022/04/23 03:16:27;;;;;;;10.20;8.75;;;11.90;99.90;;;;;;5035997;28;20028;-61
2022/04/23 03:18:53;;;;;;;9.68;8.73;;;11.90;99.90;;;;;;5030819;28;20029;-59
2022/04/23 03:21:19;;;;;;;9.60;8.70;;;12.00;99.90;;;;;;5038078;28;20025;-60
2022/04/23 03:23:45;;;;;;;9.90;8.63;;;12.00;99.90;;;;;;5036540;28;20116;-60
2022/04/23 03:26:11;;;;;;;10.00;8.95;;;12.00;99.90;;;;;;5036870;28;20026;-60
2022/04/23 03:28:36;;;;;;;10.73;9.70;;;12.00;99.90;;;;;;5036369;28;20410;-61
2022/04/23 03:31:02;;;;;;;9.95;8.95;;;12.00;99.90;;;;;;5032627;28;20041;-60
2022/04/23 03:33:28;;;;;;;10.82;8.77;;;12.00;99.90;;;;;;5037553;28;20402;-60
2022/04/23 03:35:54;;;;;;;11.00;8.88;;;12.10;99.90;;;;;;5036495;28;20022;-60
2022/04/23 03:38:20;;;;;;;9.70;8.70;;;12.00;99.90;;;;;;5034730;28;20376;-60
2022/04/23 03:40:48;;;;;;;10.38;9.02;;;11.90;99.90;;;;;;5036156;28;20032;-60
2022/04/23 03:43:15;;;;;;;9.65;8.52;;;11.90;99.90;;;;;;5033918;28;20105;-60
2022/04/23 03:45:40;;;;;;;14.30;9.20;;;11.90;99.90;;;;;;5034376;28;20026;-60
2022/04/23 03:48:06;;;;;;;9.65;7.88;;;11.90;99.90;;;;;;5037679;28;20102;-60
2022/04/23 03:50:33;;;;;;;11.75;8.57;;;11.90;99.90;;;;;;5035945;28;20035;-60
2022/04/23 03:52:58;;;;;;;11.35;8.95;;;11.90;99.90;;;;;;5035993;28;20041;-60
2022/04/23 03:55:30;;;;;;;10.75;9.20;;;11.90;99.90;;;;;;5033928;28;20390;-61
2022/04/23 03:57:55;;;;;;;10.25;9.30;;;11.90;99.90;;;;;;5016052;28;20088;-60
2022/04/23 04:00:22;;;;;;;10.43;9.25;;;11.90;99.90;;;;;;5037962;28;20336;-60
2022/04/23 04:02:49;;;;;;;12.70;9.00;;;11.90;99.90;;;;;;5035748;28;20621;-60
2022/04/23 04:05:14;;;;;;;12.68;9.75;;;11.90;99.90;;;;;;5035353;28;20505;-60
2022/04/23 04:07:45;;;;;;;15.20;10.45;;;11.80;99.90;;;;;;5035952;28;20029;-61
2022/04/23 04:10:12;;;;;;;10.52;9.38;;;11.90;99.90;;;;;;5031857;28;20029;-60
2022/04/23 04:12:38;;;;;;;13.30;9.80;;;11.90;99.90;;;;;;5034314;28;20071;-60
2022/04/23 04:15:06;;;;;;;12.55;10.20;;;11.90;99.90;;;;;;5035377;28;20060;-60
2022/04/23 04:17:32;;;;;;;14.95;10.48;;;11.80;99.90;;;;;;5034033;28;20233;-62
2022/04/23 04:19:59;;;;;;;13.57;10.82;;;11.80;99.90;;;;;;5035413;28;20108;-60
2022/04/23 04:22:25;;;;;;;11.85;10.05;;;11.80;99.90;;;;;;5033597;28;20036;-60
2022/04/23 04:24:51;;;;;;;15.38;10.82;;;11.80;99.90;;;;;;5031699;28;20033;-60
2022/04/23 04:27:17;;;;;;;13.68;11.85;;;11.80;99.90;;;;;;5037656;28;20163;-60
2022/04/23 04:29:43;;;;;;;17.13;10.98;;;11.80;99.90;;;;;;5034705;28;20401;-60
2022/04/23 04:32:09;;;;;;;13.90;11.15;;;11.80;99.90;;;;;;5032909;28;20045;-61
2022/04/23 04:34:34;;;;;;;13.05;10.07;;;11.80;99.90;;;;;;5035119;28;20493;-60
2022/04/23 04:37:08;;;;;;;14.30;10.93;;;11.70;99.90;;;;;;5030029;28;20030;-60
2022/04/23 04:39:35;;;;;;;14.43;11.15;;;11.90;99.90;;;;;;5034873;28;20407;-61
2022/04/23 04:42:01;;;;;;;12.13;9.63;;;11.90;99.90;;;;;;5036124;28;20418;-60
2022/04/23 04:44:27;;;;;;;15.00;10.73;;;12.00;99.90;;;;;;5034759;28;20025;-60
2022/04/23 04:46:53;;;;;;;12.00;10.15;;;12.00;99.90;;;;;;5034801;28;20030;-60
2022/04/23 04:49:19;;;;;;;15.93;10.77;;;12.10;99.90;;;;;;5032964;28;20025;-59
2022/04/23 04:51:45;;;;;;;12.52;9.48;;;12.00;99.90;;;;;;5031897;28;20033;-60
2022/04/23 04:54:11;;;;;;;12.52;10.57;;;12.00;99.90;;;;;;5034839;28;20091;-60
2022/04/23 04:56:37;;;;;;;14.77;10.80;;;12.00;99.90;;;;;;5032679;28;20099;-60
2022/04/23 04:59:03;;;;;;;15.45;11.25;;;11.90;99.90;;;;;;5034729;28;20021;-60
2022/04/23 05:01:29;;;;;;;11.35;10.15;;;11.80;99.90;;;;;;5034495;28;20017;-58
2022/04/23 05:03:55;;;;;;;15.25;10.80;;;11.90;99.90;;;;;;5014461;28;20120;-60
2022/04/23 05:06:21;;;;;;;14.27;10.38;;;11.90;99.90;;;;;;5036506;28;20546;-59
2022/04/23 05:08:46;;;;;;;12.07;10.40;;;11.90;99.90;;;;;;5034527;28;20030;-60
2022/04/23 05:11:13;;;;;;;14.75;9.27;;;12.00;99.90;;;;;;5034149;28;20036;-59
2022/04/23 05:13:38;;;;;;;15.52;9.82;;;12.00;99.90;;;;;;5034768;28;20502;-60
2022/04/23 05:16:08;;;;;;;13.13;9.70;;;12.00;99.90;;;;;;5030686;28;20043;-59
2022/04/23 05:18:37;;;;;;;17.35;10.25;;;12.00;99.90;;;;;;5034343;28;20112;-59
2022/04/23 05:21:03;;;;;;;14.88;10.23;;;12.00;99.90;;;;;;5035519;28;20091;-60
2022/04/23 05:23:29;;;;;;;13.73;9.52;;;11.90;99.90;;;;;;5034724;28;20360;-60
2022/04/23 05:25:55;;;;;;;14.35;10.73;;;12.00;99.90;;;;;;5033010;28;20025;-59
2022/04/23 05:28:22;;;;;;;14.77;10.35;;;11.90;99.90;;;;;;5032887;28;20510;-59
2022/04/23 05:30:47;;;;;;;15.52;10.88;;;11.90;99.90;;;;;;5030744;28;20048;-59
2022/04/23 05:33:13;;;;;;;18.40;11.48;;;11.90;99.90;;;;;;5034832;28;20420;-60
2022/04/23 05:35:39;;;;;;;16.00;10.27;;;11.90;99.90;;;;;;5033766;28;20126;-60
2022/04/23 05:38:05;;;;;;;17.95;12.02;;;11.90;99.90;;;;;;5033395;28;20049;-60
2022/04/23 05:40:32;;;;;;;14.40;10.70;;;12.00;99.90;;;;;;5032499;28;20033;-59
2022/04/23 05:42:58;;;;;;;17.35;10.40;;;11.90;99.90;;;;;;5028289;28;20040;-60
2022/04/23 05:45:28;;;;;;;16.90;10.25;;;11.90;99.90;;;;;;5035095;28;20091;-60
2022/04/23 05:47:54;;;;;;;11.60;9.35;;;11.90;99.90;;;;;;5034024;28;20056;-60
2022/04/23 05:50:20;;;;;;;13.25;8.88;;;11.90;99.90;;;;;;5033784;28;20029;-60
2022/04/23 05:52:46;;;;;;;12.48;8.73;;;11.90;99.90;;;;;;5033586;28;20048;-61
2022/04/23 05:55:12;;;;;;;11.18;7.78;;;11.90;99.90;;;;;;5031453;28;20030;-60
2022/04/23 05:57:39;;;;;;;11.35;8.07;;;11.90;99.90;;;;;;5032558;28;20025;-60
2022/04/23 06:00:06;;;;;;;12.85;8.02;;;11.90;99.90;;;;;;5034981;28;20026;-60
2022/04/23 06:02:32;;;;;;;14.25;9.52;;;11.90;99.90;;;;;;5033728;28;20072;-60
2022/04/23 06:04:58;;;;;;;12.57;8.20;;;11.90;99.90;;;;;;5034229;28;20467;-60
2022/04/23 06:07:24;;;;;;;9.32;7.45;;;11.90;99.90;;;;;;5033017;28;20052;-60
2022/04/23 06:09:50;;;;;;;10.23;6.70;;;11.90;99.90;;;;;;5029812;28;20068;-60
2022/04/23 06:12:16;;;;;;;11.63;7.50;;;11.90;99.90;;;;;;5034384;28;20088;-60
2022/04/23 06:14:42;;;;;;;8.65;7.05;;;11.90;99.90;;;;;;5031841;28;20034;-60
2022/04/23 06:17:11;;;;;;;11.75;6.72;;;11.80;99.90;;;;;;5033646;28;20017;-60
2022/04/23 06:19:38;;;;;;;10.63;6.47;;;11.80;99.90;;;;;;5033693;28;20056;-60
2022/04/23 06:22:04;;;;;;;7.78;5.55;;;11.90;99.90;;;;;;5030047;28;20030;-60
2022/04/23 06:24:31;;;;;;;12.60;4.80;;;12.00;99.90;;;;;;5034010;28;20056;-60
2022/04/23 06:26:56;;;;;;;8.65;5.07;;;11.90;99.90;;;;;;5033976;28;20053;-61
2022/04/23 06:29:22;;;;;;;7.78;4.97;;;12.00;99.90;;;;;;5033549;28;20068;-60
2022/04/23 06:31:48;;;;;;;11.10;5.82;;;12.00;99.90;;;;;;5033409;28;20037;-60
2022/04/23 06:34:14;;;;;;;9.77;5.90;;;11.90;99.90;;;;;;5031258;28;20100;-61
2022/04/23 06:36:40;;;;;;;9.05;5.45;;;12.00;99.90;;;;;;5031973;28;20033;-62
2022/04/23 06:39:06;;;;;;;9.50;6.28;;;12.00;99.90;;;;;;5034945;28;20123;-61
2022/04/23 06:41:32;;;;;;;10.82;6.10;;;12.00;99.90;;;;;;5033327;28;20524;-61
2022/04/23 06:43:58;;;;;;;9.75;6.15;;;11.90;99.90;;;;;;5033534;28;20116;-60
2022/04/23 06:46:24;;;;;;;12.25;5.80;;;12.00;99.90;;;;;;5032607;28;20025;-61
2022/04/23 06:48:49;;;;;;;11.00;6.22;;;12.00;99.90;;;;;;5029736;28;20021;-61
2022/04/23 06:51:16;;;;;;;10.13;5.80;;;12.00;99.90;;;;;;5034356;28;20037;-60
2022/04/23 06:53:42;;;;;;;9.10;5.97;;;12.00;99.90;;;;;;5032543;28;20037;-61
2022/04/23 06:56:07;;;;;;;6.13;4.80;;;12.00;99.90;;;;;;5036755;28;20017;-61
2022/04/23 06:58:34;;;;;;;10.13;4.72;;;12.00;99.90;;;;;;5036586;28;20093;-60
2022/04/23 07:01:01;;;;;;;7.35;4.13;;;12.00;99.90;;;;;;5032906;28;20619;-60
2022/04/23 07:03:27;;;;;;;6.13;4.38;;;11.90;99.90;;;;;;5038777;28;20514;-60
2022/04/23 07:05:53;;;;;;;10.18;3.67;;;12.00;99.90;;;;;;5035577;28;20517;-60
2022/04/23 07:08:18;;;;;;;7.40;3.60;;;12.00;99.90;;;;;;5036663;28;20513;-61
2022/04/23 07:10:44;;;;;;;7.40;3.08;;;12.00;99.90;;;;;;5036463;28;20029;-61
2022/04/23 07:13:11;;;;;;;8.18;3.10;;;11.90;99.90;;;;;;5033661;28;20041;-61
2022/04/23 07:15:38;;;;;;;7.38;2.78;;;11.90;99.90;;;;;;5036104;28;20462;-61
2022/04/23 07:18:04;;;;;;;6.78;2.30;;;11.80;99.90;;;;;;5038031;28;20499;-60
2022/04/23 07:20:30;;;;;;;8.02;2.35;;;11.80;99.90;;;;;;5036288;28;20033;-61
2022/04/23 07:25:40;;;;;;;7.88;2.22;;;11.80;99.90;;;;;;5036757;28;20048;-60
2022/04/23 07:28:07;;;;;;;8.27;2.10;;;11.80;99.90;;;;;;5031365;28;20483;-60
2022/04/23 07:30:34;;;;;;;8.25;2.00;;;11.80;99.90;;;;;;5036481;28;20021;-61
2022/04/23 07:33:00;;;;;;;7.32;2.10;;;11.70;99.90;;;;;;5036766;28;20076;-60
2022/04/23 07:38:16;;;;;;;8.40;2.22;;;11.70;99.90;;;;;;5035988;28;20064;-60
2022/04/23 07:40:43;;;;;;;4.90;2.17;;;11.70;99.90;;;;;;5035347;28;20033;-61
2022/04/23 07:43:13;;;;;;;7.45;2.30;;;11.70;99.90;;;;;;5032863;28;20025;-61
2022/04/23 07:45:40;;;;;;;6.55;2.10;;;11.70;99.90;;;;;;5034569;28;20032;-61
2022/04/23 07:48:08;;;;;;;7.70;1.92;;;11.80;99.90;;;;;;5037463;28;20025;-60
2022/04/23 07:50:35;;;;;;;7.05;2.45;;;11.80;99.90;;;;;;5036017;28;20055;-60
2022/04/23 07:53:02;;;;;;;4.57;1.80;;;11.80;99.90;;;;;;5035890;28;20033;-61
2022/04/23 07:55:30;;;;;;;4.53;2.03;;;11.70;99.90;;;;;;5035092;28;20505;-60
2022/04/23 07:57:59;;;;;;;8.95;2.92;;;11.80;99.90;;;;;;5031427;28;20502;-60
2022/04/23 08:00:26;;;;;;;5.75;2.63;;;11.90;99.90;;;;;;5044889;28;20017;-60
2022/04/23 08:02:52;;;;;;;5.78;1.98;;;11.90;99.90;;;;;;5035765;28;20037;-60
2022/04/23 08:05:18;;;;;;;8.75;2.08;;;12.10;99.90;;;;;;5035296;28;20029;-60
2022/04/23 08:07:44;;;;;;;3.88;1.80;;;12.10;99.90;;;;;;5034178;28;20039;-60
2022/04/23 08:10:11;;;;;;;4.70;1.88;;;12.10;99.90;;;;;;5031324;28;20022;-61
2022/04/23 08:12:37;;;;;;;5.32;2.25;;;12.20;99.90;;;;;;5034596;28;20443;-60
2022/04/23 08:15:04;;;;;;;7.07;3.30;;;12.30;99.90;;;;;;5036772;28;20025;-60
2022/04/23 08:17:30;;;;;;;6.75;2.97;;;12.40;99.90;;;;;;5035547;28;20407;-60
2022/04/23 08:19:56;;;;;;;6.88;2.10;;;12.40;99.90;;;;;;5035406;28;20017;-61
2022/04/23 08:22:22;;;;;;;4.32;2.15;;;12.60;99.90;;;;;;5034677;28;20428;-60
2022/04/23 08:24:48;;;;;;;5.18;2.05;;;12.70;99.90;;;;;;5031816;28;20557;-60
2022/04/23 08:27:13;;;;;;;7.05;2.40;;;12.60;99.90;;;;;;5036128;28;20398;-60
2022/04/23 08:32:23;;;;;;;8.13;2.10;;;12.60;99.90;;;;;;5035250;28;20050;-60
2022/04/23 08:34:49;;;;;;;6.95;2.00;;;12.50;99.90;;;;;;5035118;28;20033;-60
2022/04/23 08:37:15;;;;;;;7.25;2.00;;;12.60;99.90;;;;;;5032736;28;20037;-60
2022/04/23 08:39:42;;;;;;;7.15;2.13;;;12.60;99.90;;;;;;5033563;28;20041;-60
2022/04/23 08:42:09;;;;;;;6.82;2.03;;;12.50;99.90;;;;;;5036793;28;20033;-60
2022/04/23 08:44:37;;;;;;;7.43;2.20;;;12.50;99.90;;;;;;5034220;28;20029;-60
2022/04/23 08:47:04;;;;;;;5.90;2.30;;;12.60;99.90;;;;;;5033673;28;20037;-60
2022/04/23 08:49:35;;;;;;;11.38;2.80;;;12.70;99.90;;;;;;5033424;28;20040;-60
2022/04/23 08:52:18;;;;;;;7.82;2.38;;;12.60;99.90;;;;;;5030663;28;20049;-60
2022/04/23 08:54:44;;;;;;;7.18;2.50;;;12.70;99.90;;;;;;5032023;28;20022;-61
2022/04/23 08:57:10;;;;;;;8.63;2.70;;;12.70;99.90;;;;;;5036804;28;20568;-61
2022/04/23 08:59:37;;;;;;;6.10;2.28;;;12.90;99.90;;;;;;5033475;28;20029;-60
2022/04/23 09:02:08;;;;;;;6.13;2.35;;;12.90;99.90;;;;;;5034849;28;20040;-60
2022/04/23 09:04:37;;;;;;;10.68;2.75;;;13.00;99.90;;;;;;5034675;28;20055;-61
2022/04/23 09:07:03;;;;;;;7.00;2.30;;;13.00;99.90;;;;;;5031224;28;20038;-60
2022/04/23 09:09:28;;;;;;;6.10;2.67;;;13.00;99.90;;;;;;5035599;28;20017;-60
2022/04/23 09:11:56;;;;;;;4.43;1.98;;;13.10;99.90;;;;;;5034722;28;20037;-60
2022/04/23 09:14:23;;;;;;;7.15;2.40;;;13.10;99.90;;;;;;5034461;28;20022;-61
2022/04/23 09:25:10;;;;;;;7.85;2.10;;;13.70;99.90;;;;;;5015638;28;20029;-60
2022/04/23 09:27:42;;;;;;;8.35;2.20;;;13.60;99.90;;;;;;5034071;28;20018;-60
2022/04/23 09:30:09;;;;;;;4.78;2.20;;;13.70;99.90;;;;;;5034029;28;20033;-60
2022/04/23 09:32:36;;;;;;;5.88;1.92;;;13.80;99.90;;;;;;5034200;28;20077;-60
2022/04/23 09:35:12;;;;;;;7.78;2.60;;;13.80;99.90;;;;;;5034184;28;20104;-60
2022/04/23 09:40:27;;;;;;;6.50;2.00;;;14.10;99.90;;;;;;5033426;28;20028;-60
2022/04/23 09:43:05;;;;;;;8.40;2.40;;;14.10;99.90;;;;;;5030401;28;20095;-61
2022/04/23 09:45:32;;;;;;;7.60;1.70;;;14.20;99.90;;;;;;5043829;28;20565;-60
2022/04/23 09:48:03;;;;;;;7.38;2.13;;;14.20;99.90;;;;;;5033578;28;20117;-60
2022/04/23 09:50:36;;;;;;;8.52;1.85;;;13.90;99.90;;;;;;5034057;28;20021;-61
2022/04/23 09:53:12;;;;;;;6.05;1.60;;;13.80;99.90;;;;;;5033747;28;20056;-60
2022/04/23 09:55:38;;;;;;;6.63;1.60;;;14.00;99.90;;;;;;5034171;28;20056;-60
2022/04/23 09:58:09;;;;;;;5.68;1.60;;;14.10;99.90;;;;;;5030460;28;20064;-60
2022/04/23 10:00:40;;;;;;;6.75;2.10;;;14.10;99.90;;;;;;5034117;28;20554;-60
2022/04/23 10:03:07;;;;;;;5.88;1.90;;;13.70;99.90;;;;;;5035544;28;20030;-60
2022/04/23 10:05:38;;;;;;;5.70;1.98;;;13.80;99.90;;;;;;5032349;28;20469;-60
2022/04/23 10:08:11;;;;;;;6.18;2.15;;;13.80;99.90;;;;;;5032445;28;20114;-60
2022/04/23 10:11:00;;;;;;;8.95;2.60;;;13.70;99.90;;;;;;5034325;28;20029;-60
2022/04/23 10:13:30;;;;;;;8.07;2.38;;;13.50;99.90;;;;;;5032245;28;20068;-60
2022/04/23 10:15:58;;;;;;;6.78;1.85;;;13.40;99.90;;;;;;5029664;28;20030;-60
2022/04/23 10:18:24;;;;;;;7.32;2.10;;;13.50;99.90;;;;;;5035792;28;20044;-60
2022/04/23 10:21:00;;;;;;;7.38;1.80;;;13.50;99.90;;;;;;5033545;28;20414;-60
2022/04/23 10:23:51;;;;;;;6.03;1.80;;;13.40;99.90;;;;;;5033585;28;20040;-60
2022/04/23 10:26:35;;;;;;;5.93;1.77;;;13.50;99.90;;;;;;5033869;28;20483;-60
2022/04/23 10:29:09;;;;;;;5.38;1.60;;;13.40;99.90;;;;;;5036905;28;20526;-60
2022/04/23 10:31:36;;;;;;;7.07;1.83;;;13.30;99.90;;;;;;5037540;28;20029;-60
2022/04/23 10:34:02;;;;;;;8.10;1.70;;;13.30;99.90;;;;;;5033728;28;20038;-60
2022/04/23 10:36:28;;;;;;;7.75;1.90;;;13.20;99.90;;;;;;5038673;28;20036;-60
2022/04/23 10:39:23;;;;;;;8.20;2.00;;;13.10;99.90;;;;;;5036042;28;20418;-60
2022/04/23 10:41:51;;;;;;;6.93;1.75;;;13.10;99.90;;;;;;5033418;28;20038;-60
2022/04/23 10:44:22;;;;;;;9.80;2.13;;;13.00;99.90;;;;;;5036287;28;20034;-60
2022/04/23 10:46:49;;;;;;;12.02;2.95;;;13.00;99.90;;;;;;5035536;28;20033;-60
2022/04/23 10:49:19;;;;;;;11.40;2.45;;;13.00;99.90;;;;;;5035073;28;20484;-60
2022/04/23 10:51:46;;;;;;;14.80;3.03;;;13.20;99.90;;;;;;5034526;28;20025;-60
2022/04/23 10:54:14;;;;;;;11.30;2.70;;;13.20;99.90;;;;;;5039137;28;20030;-60
2022/04/23 10:56:40;;;;;;;10.68;2.53;;;13.20;99.90;;;;;;5037163;28;20033;-60
2022/04/23 10:59:32;;;;;;;9.82;2.42;;;13.20;99.90;;;;;;5037422;28;20026;-60
2022/04/23 11:02:03;;;;;;;8.32;2.20;;;13.30;99.90;;;;;;5037163;28;20018;-60
2022/04/23 11:04:30;;;;;;;6.53;1.83;;;13.40;99.90;;;;;;5036402;28;20037;-61
2022/04/23 11:12:52;;;;;;;7.63;1.50;;;13.70;99.90;;;;;;5046991;28;20076;-60
2022/04/23 11:15:19;;;;;;;5.35;1.55;;;13.70;99.90;;;;;;5038680;28;20478;-60
2022/04/23 11:17:53;;;;;;;6.82;1.70;;;13.80;99.90;;;;;;5036590;28;20498;-60
2022/04/23 11:20:34;;;;;;;5.32;1.70;;;13.80;99.90;;;;;;5036352;28;20386;-61
2022/04/23 11:23:01;;;;;;;5.28;1.63;;;13.80;99.90;;;;;;5035297;28;20040;-60
2022/04/23 11:25:28;;;;;;;7.72;1.58;;;13.90;99.90;;;;;;5034728;28;20033;-60
2022/04/23 11:28:00;;;;;;;8.07;1.70;;;13.90;99.90;;;;;;5032883;28;20063;-60
2022/04/23 11:30:28;;;;;;;11.10;1.55;;;14.00;99.90;;;;;;5049924;28;20037;-60
2022/04/23 11:32:54;;;;;;;6.45;1.95;;;14.10;99.90;;;;;;5034706;28;20041;-60
2022/04/23 11:35:28;;;;;;;7.00;1.70;;;14.10;99.90;;;;;;5036370;28;20025;-61
2022/04/23 11:37:55;;;;;;;8.57;2.00;;;14.50;99.90;;;;;;5036175;28;20464;-60
2022/04/23 11:40:24;;;;;;;4.70;1.42;;;14.50;99.90;;;;;;5034177;28;20501;-61
2022/04/23 11:42:49;;;;;;;9.05;1.60;;;14.50;99.90;;;;;;5032905;28;20047;-60
2022/04/23 11:45:18;;;;;;;4.50;1.25;;;14.60;99.90;;;;;;5038113;28;20116;-60
2022/04/23 11:47:44;;;;;;;5.25;1.30;;;14.60;99.90;;;;;;5035883;28;20037;-60
2022/04/23 11:50:21;;;;;;;5.05;1.33;;;14.70;99.90;;;;;;5036495;28;20065;-60
2022/04/23 11:52:58;;;;;;;6.55;1.55;;;14.80;99.90;;;;;;5035982;28;20514;-60
2022/04/23 11:55:25;;;;;;;5.45;1.20;;;14.90;99.90;;;;;;5035482;28;20067;-60
2022/04/23 11:57:59;;;;;;;6.28;1.25;;;15.00;99.90;;;;;;5032517;28;20025;-60
2022/04/23 12:00:26;;;;;;;6.78;1.38;;;15.20;99.90;;;;;;5037854;28;20044;-60
2022/04/23 12:02:52;;;;;;;6.30;1.30;;;15.30;99.90;;;;;;5034261;28;20553;-60
2022/04/23 12:05:48;;;;;;;8.48;1.60;;;14.90;99.90;;;;;;5034167;28;20117;-60
2022/04/23 12:08:23;;;;;;;6.78;1.30;;;14.70;99.90;;;;;;5034692;28;20512;-60
2022/04/23 12:10:48;;;;;;;10.18;1.88;;;14.20;99.90;;;;;;5034535;28;20024;-60
2022/04/23 12:13:14;;;;;;;6.05;1.48;;;13.80;99.90;;;;;;5033356;28;20544;-60
2022/04/23 12:15:46;;;;;;;5.90;1.83;;;13.60;99.90;;;;;;5034561;28;20105;-61
2022/04/23 12:18:17;;;;;;;6.38;2.10;;;13.40;99.90;;;;;;5035601;28;20042;-60
2022/04/23 12:20:43;;;;;;;6.47;1.60;;;13.30;99.90;;;;;;5035613;28;20541;-60
2022/04/23 12:23:09;;;;;;;7.78;1.85;;;13.30;99.90;;;;;;5035870;28;20526;-60
2022/04/23 12:25:36;;;;;;;7.10;1.50;;;13.50;99.90;;;;;;5035565;28;20056;-60
2022/04/23 12:42:11;;;;;;;6.75;1.90;;;14.40;99.90;;;;;;5036836;28;20056;-60
2022/04/23 12:44:46;;;;;;;8.07;1.83;;;14.00;99.90;;;;;;5033486;28;20033;-61
2022/04/23 12:47:19;;;;;;;10.88;1.92;;;13.70;99.90;;;;;;5034953;28;20026;-61
2022/04/23 12:49:47;;;;;;;10.43;2.08;;;13.30;99.90;;;;;;5035377;28;20036;-60
2022/04/23 12:52:22;;;;;;;11.57;4.55;;;13.50;99.90;;;;;;5031519;28;20048;-60
2022/04/23 12:55:25;;;;;;;8.02;2.60;;;13.80;99.90;;;;;;5031876;28;20017;-60
2022/04/23 12:57:53;;;;;;;16.33;12.57;;;13.90;99.90;;;;;;5045640;28;20045;-61
2022/04/23 13:00:21;;;;;;;12.90;5.30;;;14.00;99.90;;;;;;5036457;28;20072;-60
2022/04/23 13:02:51;;;;;;;10.07;3.70;;;14.00;99.90;;;;;;5035129;28;20411;-61
2022/04/23 13:05:17;;;;;;;9.00;2.08;;;13.90;99.90;;;;;;5034598;28;20075;-60
2022/04/23 13:10:27;;;;;;;10.32;3.67;;;13.90;99.90;;;;;;5034416;28;20399;-61
2022/04/23 13:12:53;;;;;;;9.48;2.83;;;13.80;99.90;;;;;;5030773;28;20041;-61
2022/04/23 13:15:19;;;;;;;11.00;2.33;;;13.80;99.90;;;;;;5036306;28;20037;-61
2022/04/23 13:17:46;;;;;;;7.93;2.20;;;13.90;99.90;;;;;;5034471;28;20116;-60
2022/04/23 13:20:14;;;;;;;9.02;5.13;;;14.00;99.90;;;;;;5033265;28;20080;-61
2022/04/23 13:22:41;;;;;;;10.20;2.70;;;13.80;99.90;;;;;;5033419;28;20033;-60
2022/04/23 13:25:07;;;;;;;9.23;2.20;;;13.60;99.90;;;;;;5031109;28;20083;-60